createdAt,value
2018-09-01T00:01:07.835Z,12.16
2018-09-01T00:04:12.772Z,12.16
2018-09-01T00:07:17.744Z,12.12
2018-09-01T00:10:22.692Z,12.07
2018-09-01T00:13:27.637Z,11.99
2018-09-01T00:16:32.568Z,11.93
2018-09-01T00:19:37.543Z,11.89
2018-09-01T00:22:42.458Z,11.81
2018-09-01T00:25:47.372Z,11.77
2018-09-01T00:28:52.289Z,11.70
2018-09-01T00:31:57.217Z,11.67
2018-09-01T00:35:02.145Z,11.62
2018-09-01T00:38:12.752Z,11.51
2018-09-01T00:41:17.673Z,11.52
2018-09-01T00:44:22.603Z,11.49
2018-09-01T00:47:27.536Z,11.49
2018-09-01T00:50:32.452Z,11.44
2018-09-01T00:53:37.365Z,11.35
2018-09-01T00:56:42.285Z,11.34
2018-09-01T00:59:47.252Z,11.29
2018-09-01T01:02:52.180Z,11.23
2018-09-01T01:05:57.097Z,11.16
2018-09-01T01:09:02.041Z,11.18
2018-09-01T01:12:06.961Z,11.07
2018-09-01T01:15:11.932Z,11.08
2018-09-01T01:18:16.845Z,11.04
2018-09-01T01:21:21.768Z,10.95
2018-09-01T01:24:26.746Z,10.97
2018-09-01T01:27:31.646Z,11.01
2018-09-01T01:30:36.582Z,10.99
2018-09-01T01:33:41.517Z,10.91
2018-09-01T01:36:46.441Z,10.85
2018-09-01T01:39:51.350Z,10.88
2018-09-01T01:42:56.300Z,10.87
2018-09-01T01:46:01.238Z,10.86
2018-09-01T01:49:06.154Z,10.82
2018-09-01T01:52:11.073Z,10.72
2018-09-01T01:55:15.997Z,10.70
2018-09-01T01:58:20.922Z,10.63
2018-09-01T02:01:25.858Z,10.57
2018-09-01T02:04:30.785Z,10.60
2018-09-01T02:07:35.777Z,10.55
2018-09-01T02:10:40.703Z,10.45
2018-09-01T02:13:45.628Z,10.34
2018-09-01T02:16:50.553Z,10.26
2018-09-01T02:19:55.465Z,10.28
2018-09-01T02:23:00.413Z,10.14
2018-09-01T02:26:05.533Z,10.10
2018-09-01T02:29:10.445Z,10.17
2018-09-01T02:32:15.361Z,10.19
2018-09-01T02:35:20.280Z,10.24
2018-09-01T02:38:25.187Z,10.26
2018-09-01T02:41:30.112Z,10.20
2018-09-01T02:44:35.025Z,10.18
2018-09-01T02:47:39.922Z,10.14
2018-09-01T02:50:44.853Z,10.09
2018-09-01T02:53:49.769Z,10.12
2018-09-01T02:56:54.672Z,10.13
2018-09-01T02:59:59.582Z,10.05
2018-09-01T03:03:04.525Z,9.94
2018-09-01T03:06:09.470Z,9.92
2018-09-01T03:09:14.608Z,9.96
2018-09-01T03:12:19.522Z,9.97
2018-09-01T03:15:24.511Z,9.95
2018-09-01T03:18:29.434Z,9.90
2018-09-01T03:21:34.401Z,9.89
2018-09-01T03:24:39.329Z,9.82
2018-09-01T03:27:44.250Z,9.80
2018-09-01T03:30:49.211Z,9.77
2018-09-01T03:33:54.393Z,9.75
2018-09-01T03:36:59.315Z,9.71
2018-09-01T03:40:05.086Z,9.70
2018-09-01T03:43:09.992Z,9.71
2018-09-01T03:46:14.912Z,9.72
2018-09-01T03:49:19.888Z,9.66
2018-09-01T03:52:24.805Z,9.64
2018-09-01T03:55:29.720Z,9.59
2018-09-01T03:58:34.821Z,9.59
2018-09-01T04:01:39.763Z,9.56
2018-09-01T04:04:44.696Z,9.53
2018-09-01T04:07:49.613Z,9.47
2018-09-01T04:10:54.541Z,9.47
2018-09-01T04:13:59.457Z,9.53
2018-09-01T04:17:04.911Z,9.54
2018-09-01T04:20:09.837Z,9.56
2018-09-01T04:23:14.773Z,9.48
2018-09-01T04:26:19.686Z,9.48
2018-09-01T04:29:24.589Z,9.43
2018-09-01T04:32:29.513Z,9.39
2018-09-01T04:35:34.433Z,9.37
2018-09-01T04:38:39.366Z,9.36
2018-09-01T04:41:44.309Z,9.36
2018-09-01T04:44:49.251Z,9.34
2018-09-01T04:47:54.188Z,9.36
2018-09-01T04:50:59.113Z,9.33
2018-09-01T04:54:04.138Z,9.25
2018-09-01T04:57:09.064Z,9.26
2018-09-01T05:00:19.915Z,9.29
2018-09-01T05:03:24.831Z,9.23
2018-09-01T05:06:29.749Z,9.17
2018-09-01T05:09:34.649Z,9.18
2018-09-01T05:12:39.685Z,9.14
2018-09-01T05:15:44.613Z,9.17
2018-09-01T05:18:50.292Z,9.16
2018-09-01T05:21:55.269Z,9.15
2018-09-01T05:25:00.256Z,9.17
2018-09-01T05:28:05.240Z,9.23
2018-09-01T05:31:10.164Z,9.30
2018-09-01T05:34:15.281Z,9.24
2018-09-01T05:37:20.237Z,9.30
2018-09-01T05:40:25.316Z,9.37
2018-09-01T05:43:30.328Z,9.42
2018-09-01T05:46:35.260Z,9.44
2018-09-01T05:49:40.189Z,9.42
2018-09-01T05:52:45.122Z,9.51
2018-09-01T05:55:50.067Z,9.58
2018-09-01T05:58:55.134Z,9.71
2018-09-01T06:02:00.096Z,9.92
2018-09-01T06:05:05.916Z,10.07
2018-09-01T06:08:10.871Z,10.20
2018-09-01T06:11:15.813Z,10.35
2018-09-01T06:14:20.721Z,10.61
2018-09-01T06:17:25.720Z,10.88
2018-09-01T06:20:30.625Z,11.10
2018-09-01T06:23:35.581Z,11.35
2018-09-01T06:26:40.568Z,11.62
2018-09-01T06:29:45.541Z,11.84
2018-09-01T06:32:50.524Z,12.04
2018-09-01T06:35:55.446Z,12.34
2018-09-01T06:39:00.368Z,12.64
2018-09-01T06:42:05.337Z,12.99
2018-09-01T06:45:10.256Z,13.31
2018-09-01T06:48:15.217Z,13.63
2018-09-01T06:51:20.184Z,13.92
2018-09-01T06:54:25.172Z,14.24
2018-09-01T06:57:30.124Z,14.61
2018-09-01T07:00:35.054Z,14.96
2018-09-01T07:03:39.968Z,15.25
2018-09-01T07:06:44.894Z,15.51
2018-09-01T07:09:49.825Z,15.70
2018-09-01T07:12:54.768Z,15.95
2018-09-01T07:15:59.762Z,16.34
2018-09-01T07:19:04.851Z,16.30
2018-09-01T07:22:09.805Z,16.27
2018-09-01T07:25:14.719Z,15.96
2018-09-01T07:28:19.664Z,15.89
2018-09-01T07:31:25.052Z,15.67
2018-09-01T07:34:29.583Z,15.82
2018-09-01T07:37:34.537Z,15.85
2018-09-01T07:40:39.482Z,15.57
2018-09-01T07:43:44.392Z,15.56
2018-09-01T07:46:49.836Z,15.88
2018-09-01T07:49:54.775Z,16.22
2018-09-01T07:52:59.660Z,16.47
2018-09-01T07:56:04.661Z,16.74
2018-09-01T07:59:09.547Z,16.74
2018-09-01T08:02:14.481Z,17.09
2018-09-01T08:05:19.412Z,17.35
2018-09-01T08:08:24.347Z,17.55
2018-09-01T08:11:29.276Z,17.64
2018-09-01T08:14:34.247Z,17.74
2018-09-01T08:17:39.117Z,17.79
2018-09-01T08:20:44.037Z,17.69
2018-09-01T08:23:48.964Z,17.57
2018-09-01T08:30:11.557Z,18.08
2018-09-01T08:33:16.470Z,18.42
2018-09-01T08:36:21.429Z,18.48
2018-09-01T08:39:26.369Z,18.80
2018-09-01T08:42:31.316Z,19.13
2018-09-01T08:45:36.250Z,19.46
2018-09-01T08:48:41.182Z,19.44
2018-09-01T08:51:46.109Z,19.06
2018-09-01T08:54:51.033Z,19.53
2018-09-01T08:57:56.003Z,19.52
2018-09-01T09:01:00.930Z,20.20
2018-09-01T09:04:05.870Z,20.68
2018-09-01T09:07:10.823Z,21.02
2018-09-01T09:10:15.875Z,21.12
2018-09-01T09:13:20.797Z,21.12
2018-09-01T09:16:25.721Z,21.07
2018-09-01T09:19:30.683Z,21.07
2018-09-01T09:22:35.880Z,20.34
2018-09-01T09:25:40.815Z,20.72
2018-09-01T09:28:45.736Z,20.73
2018-09-01T09:31:50.680Z,20.54
2018-09-01T09:34:55.620Z,21.08
2018-09-01T09:38:00.546Z,21.30
2018-09-01T09:41:05.580Z,21.66
2018-09-01T09:44:10.528Z,22.06
2018-09-01T09:47:15.456Z,22.63
2018-09-01T09:50:20.400Z,22.87
2018-09-01T09:53:25.334Z,22.97
2018-09-01T09:56:30.287Z,22.66
2018-09-01T09:59:35.213Z,22.11
2018-09-01T10:02:40.137Z,21.92
2018-09-01T10:05:45.131Z,21.89
2018-09-01T10:08:50.013Z,21.23
2018-09-01T10:11:54.961Z,21.11
2018-09-01T10:14:59.889Z,21.60
2018-09-01T10:18:04.829Z,22.26
2018-09-01T10:21:09.777Z,21.61
2018-09-01T10:24:14.729Z,21.49
2018-09-01T10:27:19.661Z,21.11
2018-09-01T10:30:24.606Z,20.84
2018-09-01T10:33:29.552Z,21.24
2018-09-01T10:36:34.485Z,21.57
2018-09-01T10:39:39.421Z,21.39
2018-09-01T10:42:44.336Z,21.15
2018-09-01T10:45:50.095Z,20.79
2018-09-01T10:48:55.098Z,21.13
2018-09-01T10:52:00.009Z,21.86
2018-09-01T10:55:05.005Z,21.78
2018-09-01T10:58:09.916Z,21.80
2018-09-01T11:01:14.889Z,22.54
2018-09-01T11:04:19.814Z,23.34
2018-09-01T11:07:24.742Z,23.63
2018-09-01T11:10:29.684Z,23.51
2018-09-01T11:13:34.609Z,24.17
2018-09-01T11:16:39.546Z,24.48
2018-09-01T11:19:44.523Z,23.35
2018-09-01T11:22:49.443Z,22.98
2018-09-01T11:25:54.386Z,22.77
2018-09-01T11:28:59.310Z,22.52
2018-09-01T11:32:04.578Z,22.61
2018-09-01T11:35:09.831Z,22.71
2018-09-01T11:38:14.775Z,22.59
2018-09-01T11:41:19.692Z,21.96
2018-09-01T11:44:24.606Z,22.00
2018-09-01T11:47:29.769Z,21.69
2018-09-01T11:50:34.676Z,22.17
2018-09-01T11:53:39.663Z,22.62
2018-09-01T11:56:44.531Z,22.64
2018-09-01T11:59:49.717Z,22.16
2018-09-01T12:02:54.613Z,22.05
2018-09-01T12:05:59.516Z,21.97
2018-09-01T12:09:05.614Z,21.95
2018-09-01T12:12:10.461Z,22.17
2018-09-01T12:15:15.385Z,22.46
2018-09-01T12:18:20.320Z,22.53
2018-09-01T12:21:25.288Z,22.57
2018-09-01T12:24:30.213Z,22.76
2018-09-01T12:27:35.141Z,23.32
2018-09-01T12:30:40.077Z,23.84
2018-09-01T12:33:45.029Z,23.29
2018-09-01T12:36:49.950Z,23.07
2018-09-01T12:39:54.888Z,22.52
2018-09-01T12:42:59.821Z,22.54
2018-09-01T12:46:04.766Z,22.39
2018-09-01T12:49:09.721Z,22.71
2018-09-01T12:52:14.649Z,22.41
2018-09-01T12:55:19.580Z,22.58
2018-09-01T12:58:24.501Z,22.87
2018-09-01T13:01:29.477Z,22.82
2018-09-01T13:04:34.397Z,22.60
2018-09-01T13:07:39.333Z,22.48
2018-09-01T13:10:44.268Z,22.36
2018-09-01T13:13:49.200Z,22.29
2018-09-01T13:16:54.141Z,22.05
2018-09-01T13:19:59.057Z,22.37
2018-09-01T13:23:04.198Z,22.59
2018-09-01T13:26:09.123Z,23.06
2018-09-01T13:29:14.031Z,23.16
2018-09-01T13:32:18.968Z,22.97
2018-09-01T13:35:23.897Z,22.53
2018-09-01T13:38:28.837Z,22.26
2018-09-01T13:41:33.769Z,22.43
2018-09-01T13:44:38.722Z,22.54
2018-09-01T13:47:43.625Z,22.60
2018-09-01T13:50:48.554Z,22.71
2018-09-01T13:53:53.469Z,22.98
2018-09-01T13:56:58.396Z,23.01
2018-09-01T14:00:03.417Z,22.74
2018-09-01T14:03:08.341Z,22.47
2018-09-01T14:06:13.269Z,22.26
2018-09-01T14:09:18.201Z,21.94
2018-09-01T14:12:23.145Z,21.91
2018-09-01T14:15:28.064Z,22.08
2018-09-01T14:18:33.020Z,22.54
2018-09-01T14:21:37.949Z,22.76
2018-09-01T14:24:42.885Z,22.68
2018-09-01T14:27:47.817Z,22.59
2018-09-01T14:31:05.764Z,22.36
2018-09-01T14:34:10.738Z,22.17
2018-09-01T14:37:15.652Z,22.13
2018-09-01T14:40:20.590Z,21.90
2018-09-01T14:43:25.514Z,21.92
2018-09-01T14:46:30.465Z,22.13
2018-09-01T14:49:35.385Z,22.10
2018-09-01T14:52:40.340Z,22.25
2018-09-01T14:55:45.301Z,22.27
2018-09-01T14:58:50.254Z,21.82
2018-09-01T15:01:55.183Z,21.52
2018-09-01T15:05:00.153Z,21.50
2018-09-01T15:08:05.225Z,21.73
2018-09-01T15:11:10.151Z,21.76
2018-09-01T15:14:15.101Z,21.91
2018-09-01T15:17:20.029Z,21.96
2018-09-01T15:20:24.977Z,22.00
2018-09-01T15:23:29.910Z,22.12
2018-09-01T15:26:35.021Z,22.01
2018-09-01T15:29:39.934Z,22.05
2018-09-01T15:32:44.926Z,22.14
2018-09-01T15:35:49.837Z,22.27
2018-09-01T15:38:54.760Z,22.20
2018-09-01T15:41:59.689Z,22.15
2018-09-01T15:45:04.657Z,22.05
2018-09-01T15:48:09.633Z,22.09
2018-09-01T15:51:14.609Z,21.99
2018-09-01T15:54:19.541Z,21.84
2018-09-01T15:57:24.472Z,21.73
2018-09-01T16:00:29.417Z,21.66
2018-09-01T16:03:34.445Z,21.67
2018-09-01T16:06:39.350Z,21.70
2018-09-01T16:09:44.294Z,21.76
2018-09-01T16:12:49.254Z,21.61
2018-09-01T16:15:54.201Z,21.62
2018-09-01T16:18:59.150Z,21.61
2018-09-01T16:22:04.137Z,21.50
2018-09-01T16:25:09.076Z,21.51
2018-09-01T16:28:14.054Z,21.61
2018-09-01T16:31:19.010Z,21.48
2018-09-01T16:34:24.035Z,21.40
2018-09-01T16:37:28.936Z,21.31
2018-09-01T16:40:33.854Z,21.23
2018-09-01T16:43:38.805Z,21.12
2018-09-01T16:46:43.733Z,21.01
2018-09-01T16:49:48.681Z,21.00
2018-09-01T16:52:53.608Z,21.04
2018-09-01T16:55:58.533Z,20.99
2018-09-01T16:59:03.601Z,20.83
2018-09-01T17:02:08.558Z,20.91
2018-09-01T17:05:13.502Z,20.92
2018-09-01T17:08:18.435Z,20.71
2018-09-01T17:11:23.369Z,20.78
2018-09-01T17:14:28.294Z,20.98
2018-09-01T17:17:33.229Z,20.91
2018-09-01T17:20:38.174Z,20.88
2018-09-01T17:23:43.161Z,20.71
2018-09-01T17:26:48.068Z,20.62
2018-09-01T17:30:01.106Z,20.29
2018-09-01T17:33:06.315Z,19.97
2018-09-01T17:36:11.216Z,19.79
2018-09-01T17:39:16.157Z,19.61
2018-09-01T17:42:21.048Z,19.65
2018-09-01T17:45:25.954Z,19.55
2018-09-01T17:48:30.887Z,19.44
2018-09-01T17:51:35.792Z,19.30
2018-09-01T17:54:40.750Z,19.16
2018-09-01T17:57:45.648Z,19.08
2018-09-01T18:00:50.618Z,18.97
2018-09-01T18:03:55.548Z,18.84
2018-09-01T18:07:00.452Z,18.67
2018-09-01T18:10:05.437Z,18.47
2018-09-01T18:13:10.349Z,18.33
2018-09-01T18:16:15.249Z,18.20
2018-09-01T18:19:20.168Z,17.96
2018-09-01T18:22:25.096Z,17.69
2018-09-01T18:25:30.030Z,17.50
2018-09-01T18:28:34.953Z,17.37
2018-09-01T18:31:39.873Z,17.13
2018-09-01T18:34:44.835Z,16.99
2018-09-01T18:37:49.753Z,16.92
2018-09-01T18:40:54.680Z,16.86
2018-09-01T18:43:59.625Z,16.71
2018-09-01T18:47:04.947Z,16.42
2018-09-01T18:50:09.842Z,16.19
2018-09-01T18:53:14.819Z,16.04
2018-09-01T18:56:19.873Z,15.90
2018-09-01T18:59:24.825Z,15.72
2018-09-01T19:02:29.941Z,15.76
2018-09-01T19:05:34.917Z,15.78
2018-09-01T19:08:39.855Z,15.66
2018-09-01T19:11:44.792Z,15.59
2018-09-01T19:14:49.717Z,15.56
2018-09-01T19:17:54.653Z,15.53
2018-09-01T19:20:59.859Z,15.43
2018-09-01T19:24:04.950Z,15.24
2018-09-01T19:27:09.856Z,15.20
2018-09-01T19:30:14.864Z,15.18
2018-09-01T19:33:19.772Z,15.17
2018-09-01T19:36:24.700Z,15.03
2018-09-01T19:39:29.630Z,14.93
2018-09-01T19:42:34.533Z,14.83
2018-09-01T19:45:39.556Z,14.72
2018-09-01T19:48:44.357Z,14.64
2018-09-01T19:51:49.489Z,14.56
2018-09-01T19:54:54.426Z,14.48
2018-09-01T19:57:59.365Z,14.42
2018-09-01T20:01:04.351Z,14.30
2018-09-01T20:04:09.263Z,14.25
2018-09-01T20:07:14.180Z,14.12
2018-09-01T20:10:19.083Z,14.04
2018-09-01T20:13:23.993Z,14.00
2018-09-01T20:16:28.928Z,13.87
2018-09-01T20:19:33.841Z,13.73
2018-09-01T20:22:38.772Z,13.61
2018-09-01T20:25:43.687Z,13.54
2018-09-01T20:28:48.627Z,13.43
2018-09-01T20:31:53.638Z,13.41
2018-09-01T20:35:04.157Z,13.34
2018-09-01T20:38:09.073Z,13.21
2018-09-01T20:41:14.055Z,13.18
2018-09-01T20:44:19.017Z,13.19
2018-09-01T20:47:23.944Z,13.17
2018-09-01T20:50:28.867Z,13.05
2018-09-01T20:53:33.797Z,12.87
2018-09-01T20:56:38.768Z,12.77
2018-09-01T20:59:43.753Z,12.72
2018-09-01T21:02:48.698Z,12.71
2018-09-01T21:05:53.596Z,12.73
2018-09-01T21:08:58.525Z,12.72
2018-09-01T21:12:03.447Z,12.64
2018-09-01T21:15:08.400Z,12.52
2018-09-01T21:18:13.324Z,12.49
2018-09-01T21:21:18.277Z,12.44
2018-09-01T21:24:23.233Z,12.34
2018-09-01T21:27:28.168Z,12.26
2018-09-01T21:30:33.098Z,12.23
2018-09-01T21:33:38.049Z,12.24
2018-09-01T21:36:43.037Z,12.25
2018-09-01T21:39:48.013Z,12.22
2018-09-01T21:42:52.905Z,12.17
2018-09-01T21:45:57.820Z,11.98
2018-09-01T21:49:02.753Z,11.92
2018-09-01T21:52:07.712Z,11.88
2018-09-01T21:55:12.628Z,11.87
2018-09-01T22:02:19.855Z,11.87
2018-09-01T22:05:24.777Z,11.71
2018-09-01T22:08:29.717Z,11.67
2018-09-01T22:11:34.661Z,11.65
2018-09-01T22:14:39.573Z,11.56
2018-09-01T22:17:44.484Z,11.58
2018-09-01T22:20:49.405Z,11.55
2018-09-01T22:23:54.323Z,11.54
2018-09-01T22:26:59.232Z,11.50
2018-09-01T22:30:04.191Z,11.47
2018-09-01T22:33:09.125Z,11.47
2018-09-01T22:36:14.046Z,11.44
2018-09-01T22:39:18.979Z,11.38
2018-09-01T22:42:23.914Z,11.28
2018-09-01T22:45:28.832Z,11.27
2018-09-01T22:48:33.817Z,11.24
2018-09-01T22:51:38.826Z,11.18
2018-09-01T22:54:43.733Z,11.23
2018-09-01T22:57:48.667Z,11.09
2018-09-01T23:00:53.612Z,11.04
2018-09-01T23:03:58.538Z,11.00
2018-09-01T23:07:03.617Z,11.03
2018-09-01T23:10:08.524Z,10.97
2018-09-01T23:13:13.475Z,10.86
2018-09-01T23:16:18.408Z,10.74
2018-09-01T23:19:23.337Z,10.79
2018-09-01T23:22:28.261Z,10.78
2018-09-01T23:25:33.212Z,10.71
2018-09-01T23:28:38.210Z,10.70
2018-09-01T23:31:43.155Z,10.63
2018-09-01T23:34:48.069Z,10.60
2018-09-01T23:37:53.009Z,10.61
2018-09-01T23:40:57.959Z,10.62
2018-09-01T23:44:02.884Z,10.59
2018-09-01T23:47:07.829Z,10.60
2018-09-01T23:50:12.780Z,10.52
2018-09-01T23:53:17.713Z,10.53
2018-09-01T23:56:22.629Z,10.57
2018-09-01T23:59:27.550Z,10.56
